sensor_id;sensor_type;location;lat;lon;timestamp;pressure;altitude;pressure_sealevel;temperature;humidity
21728;BME280;11026;50.560;17.852;2022-10-22T00:00:12;99308.69;;;8.30;100.00
21728;BME280;11026;50.560;17.852;2022-10-22T00:02:41;99321.53;;;8.39;100.00
21728;BME280;11026;50.560;17.852;2022-10-22T00:05:10;99335.72;;;8.35;99.75
21728;BME280;11026;50.560;17.852;2022-10-22T00:07:37;99339.09;;;8.15;99.89
21728;BME280;11026;50.560;17.852;2022-10-22T00:10:05;99336.91;;;8.28;100.00
21728;BME280;11026;50.560;17.852;2022-10-22T00:12:33;99331.50;;;8.54;98.91
21728;BME280;11026;50.560;17.852;2022-10-22T00:15:03;99341.38;;;8.49;98.67
21728;BME280;11026;50.560;17.852;2022-10-22T00:17:30;99338.16;;;8.41;99.13
21728;BME280;11026;50.560;17.852;2022-10-22T00:19:58;99336.22;;;8.46;98.87
21728;BME280;11026;50.560;17.852;2022-10-22T00:22:27;99345.69;;;8.52;97.92
21728;BME280;11026;50.560;17.852;2022-10-22T00:24:55;99347.75;;;8.19;97.86
21728;BME280;11026;50.560;17.852;2022-10-22T00:27:22;99354.78;;;7.95;98.83
21728;BME280;11026;50.560;17.852;2022-10-22T00:29:49;99351.97;;;7.99;99.48
21728;BME280;11026;50.560;17.852;2022-10-22T00:32:16;99350.41;;;7.70;100.00
21728;BME280;11026;50.560;17.852;2022-10-22T00:34:43;99346.84;;;7.46;100.00
21728;BME280;11026;50.560;17.852;2022-10-22T00:37:10;99345.50;;;7.34;100.00
21728;BME280;11026;50.560;17.852;2022-10-22T00:39:38;99340.38;;;7.56;100.00
21728;BME280;11026;50.560;17.852;2022-10-22T00:42:05;99335.69;;;7.64;100.00
21728;BME280;11026;50.560;17.852;2022-10-22T00:47:59;99338.28;;;7.39;100.00
21728;BME280;11026;50.560;17.852;2022-10-22T00:50:29;99340.97;;;7.13;100.00
21728;BME280;11026;50.560;17.852;2022-10-22T00:52:57;99332.34;;;7.08;100.00
21728;BME280;11026;50.560;17.852;2022-10-22T00:55:26;99319.09;;;7.11;100.00
21728;BME280;11026;50.560;17.852;2022-10-22T00:57:55;99308.91;;;7.27;100.00
21728;BME280;11026;50.560;17.852;2022-10-22T01:00:24;99311.41;;;7.56;100.00
21728;BME280;11026;50.560;17.852;2022-10-22T01:02:53;99306.28;;;7.52;100.00
21728;BME280;11026;50.560;17.852;2022-10-22T01:05:27;99304.63;;;7.49;100.00
21728;BME280;11026;50.560;17.852;2022-10-22T01:07:56;99305.63;;;7.20;100.00
21728;BME280;11026;50.560;17.852;2022-10-22T01:13:37;99310.00;;;7.21;100.00
21728;BME280;11026;50.560;17.852;2022-10-22T01:21:41;99290.88;;;7.41;100.00
21728;BME280;11026;50.560;17.852;2022-10-22T01:30:07;99283.22;;;7.08;100.00
21728;BME280;11026;50.560;17.852;2022-10-22T01:32:57;99284.72;;;7.15;100.00
21728;BME280;11026;50.560;17.852;2022-10-22T01:35:34;99274.19;;;7.17;100.00
21728;BME280;11026;50.560;17.852;2022-10-22T01:38:08;99282.94;;;6.91;100.00
21728;BME280;11026;50.560;17.852;2022-10-22T01:40:38;99271.34;;;6.97;100.00
21728;BME280;11026;50.560;17.852;2022-10-22T01:43:07;99281.59;;;7.04;100.00
21728;BME280;11026;50.560;17.852;2022-10-22T01:45:56;99286.06;;;6.76;100.00
21728;BME280;11026;50.560;17.852;2022-10-22T01:59:37;99272.47;;;6.63;100.00
21728;BME280;11026;50.560;17.852;2022-10-22T02:05:06;99257.34;;;6.70;100.00
21728;BME280;11026;50.560;17.852;2022-10-22T02:07:40;99256.19;;;6.78;100.00
21728;BME280;11026;50.560;17.852;2022-10-22T02:10:09;99260.22;;;6.88;100.00
21728;BME280;11026;50.560;17.852;2022-10-22T02:12:37;99267.34;;;7.11;100.00
21728;BME280;11026;50.560;17.852;2022-10-22T02:15:09;99273.44;;;7.12;100.00
21728;BME280;11026;50.560;17.852;2022-10-22T02:17:38;99294.28;;;6.93;100.00
21728;BME280;11026;50.560;17.852;2022-10-22T02:20:21;99313.63;;;7.17;100.00
21728;BME280;11026;50.560;17.852;2022-10-22T02:22:51;99309.59;;;7.07;100.00
21728;BME280;11026;50.560;17.852;2022-10-22T02:25:21;99297.28;;;7.07;100.00
21728;BME280;11026;50.560;17.852;2022-10-22T02:28:06;99293.19;;;6.99;100.00
21728;BME280;11026;50.560;17.852;2022-10-22T02:30:41;99295.25;;;7.15;100.00
21728;BME280;11026;50.560;17.852;2022-10-22T02:33:20;99302.91;;;7.23;100.00
21728;BME280;11026;50.560;17.852;2022-10-22T02:35:50;99301.84;;;7.29;100.00
21728;BME280;11026;50.560;17.852;2022-10-22T02:38:19;99305.06;;;7.37;100.00
21728;BME280;11026;50.560;17.852;2022-10-22T02:40:47;99301.41;;;7.41;100.00
21728;BME280;11026;50.560;17.852;2022-10-22T02:43:14;99284.88;;;7.37;100.00
21728;BME280;11026;50.560;17.852;2022-10-22T02:45:41;99278.41;;;7.46;100.00
21728;BME280;11026;50.560;17.852;2022-10-22T02:48:10;99283.47;;;7.52;100.00
21728;BME280;11026;50.560;17.852;2022-10-22T02:50:37;99278.72;;;7.62;100.00
21728;BME280;11026;50.560;17.852;2022-10-22T02:53:04;99277.81;;;7.63;100.00
21728;BME280;11026;50.560;17.852;2022-10-22T02:55:31;99288.41;;;7.61;100.00
21728;BME280;11026;50.560;17.852;2022-10-22T02:57:59;99297.22;;;7.60;100.00
21728;BME280;11026;50.560;17.852;2022-10-22T03:00:28;99300.78;;;7.83;100.00
21728;BME280;11026;50.560;17.852;2022-10-22T03:02:56;99287.31;;;7.92;100.00
21728;BME280;11026;50.560;17.852;2022-10-22T03:05:23;99282.19;;;7.87;100.00
21728;BME280;11026;50.560;17.852;2022-10-22T03:07:50;99283.97;;;7.87;100.00
21728;BME280;11026;50.560;17.852;2022-10-22T03:10:19;99284.69;;;7.91;100.00
21728;BME280;11026;50.560;17.852;2022-10-22T03:12:46;99294.38;;;7.90;100.00
21728;BME280;11026;50.560;17.852;2022-10-22T03:15:15;99290.16;;;7.86;100.00
21728;BME280;11026;50.560;17.852;2022-10-22T03:17:42;99289.56;;;7.78;100.00
21728;BME280;11026;50.560;17.852;2022-10-22T03:20:09;99300.78;;;7.83;100.00
21728;BME280;11026;50.560;17.852;2022-10-22T03:22:38;99299.53;;;7.93;100.00
21728;BME280;11026;50.560;17.852;2022-10-22T03:25:10;99306.53;;;7.94;100.00
21728;BME280;11026;50.560;17.852;2022-10-22T03:27:40;99296.75;;;7.98;100.00
21728;BME280;11026;50.560;17.852;2022-10-22T03:30:08;99285.09;;;8.03;100.00
21728;BME280;11026;50.560;17.852;2022-10-22T03:32:35;99276.13;;;8.09;100.00
21728;BME280;11026;50.560;17.852;2022-10-22T03:35:03;99266.72;;;8.02;100.00
21728;BME280;11026;50.560;17.852;2022-10-22T03:37:31;99264.94;;;8.02;100.00
21728;BME280;11026;50.560;17.852;2022-10-22T03:40:02;99253.63;;;8.00;100.00
21728;BME280;11026;50.560;17.852;2022-10-22T03:42:31;99254.53;;;7.99;100.00
21728;BME280;11026;50.560;17.852;2022-10-22T03:44:58;99253.75;;;7.97;100.00
21728;BME280;11026;50.560;17.852;2022-10-22T03:47:25;99259.84;;;7.98;100.00
21728;BME280;11026;50.560;17.852;2022-10-22T03:49:52;99254.97;;;8.10;100.00
21728;BME280;11026;50.560;17.852;2022-10-22T03:52:19;99255.84;;;8.11;99.58
21728;BME280;11026;50.560;17.852;2022-10-22T03:54:47;99248.22;;;8.03;99.03
21728;BME280;11026;50.560;17.852;2022-10-22T03:57:15;99249.72;;;8.10;99.18
21728;BME280;11026;50.560;17.852;2022-10-22T03:59:44;99258.75;;;8.03;98.49
21728;BME280;11026;50.560;17.852;2022-10-22T04:02:12;99274.28;;;8.11;98.02
21728;BME280;11026;50.560;17.852;2022-10-22T04:04:39;99268.97;;;8.12;98.13
21728;BME280;11026;50.560;17.852;2022-10-22T04:07:07;99272.63;;;8.08;97.97
21728;BME280;11026;50.560;17.852;2022-10-22T04:09:35;99269.75;;;8.14;97.60
21728;BME280;11026;50.560;17.852;2022-10-22T04:12:02;99262.84;;;8.12;97.62
21728;BME280;11026;50.560;17.852;2022-10-22T04:14:33;99253.16;;;8.12;97.46
21728;BME280;11026;50.560;17.852;2022-10-22T04:17:01;99264.72;;;8.08;97.46
21728;BME280;11026;50.560;17.852;2022-10-22T04:19:29;99262.13;;;8.07;97.45
21728;BME280;11026;50.560;17.852;2022-10-22T04:21:59;99269.91;;;7.88;98.02
21728;BME280;11026;50.560;17.852;2022-10-22T04:24:27;99278.00;;;8.05;97.93
21728;BME280;11026;50.560;17.852;2022-10-22T04:26:56;99287.69;;;8.05;97.82
21728;BME280;11026;50.560;17.852;2022-10-22T04:29:23;99288.56;;;8.05;97.96
21728;BME280;11026;50.560;17.852;2022-10-22T04:31:50;99278.00;;;8.05;97.39
21728;BME280;11026;50.560;17.852;2022-10-22T04:34:18;99268.44;;;8.03;97.66
21728;BME280;11026;50.560;17.852;2022-10-22T04:36:46;99264.91;;;8.04;97.42
21728;BME280;11026;50.560;17.852;2022-10-22T04:39:14;99258.91;;;8.00;97.55
21728;BME280;11026;50.560;17.852;2022-10-22T04:41:41;99254.50;;;8.01;97.70
21728;BME280;11026;50.560;17.852;2022-10-22T04:44:08;99243.19;;;7.97;98.27
21728;BME280;11026;50.560;17.852;2022-10-22T04:46:42;99245.72;;;8.00;98.30
21728;BME280;11026;50.560;17.852;2022-10-22T04:49:10;99237.69;;;8.03;97.94
21728;BME280;11026;50.560;17.852;2022-10-22T04:51:38;99221.03;;;8.03;97.87
21728;BME280;11026;50.560;17.852;2022-10-22T04:54:05;99234.91;;;8.08;97.94
21728;BME280;11026;50.560;17.852;2022-10-22T04:56:32;99244.69;;;8.04;97.77
21728;BME280;11026;50.560;17.852;2022-10-22T04:59:03;99258.66;;;8.06;97.18
21728;BME280;11026;50.560;17.852;2022-10-22T05:01:33;99276.31;;;8.04;96.90
21728;BME280;11026;50.560;17.852;2022-10-22T05:04:11;99267.00;;;8.18;96.47
21728;BME280;11026;50.560;17.852;2022-10-22T05:06:38;99268.81;;;8.16;96.17
21728;BME280;11026;50.560;17.852;2022-10-22T05:09:11;99284.63;;;8.16;95.99
21728;BME280;11026;50.560;17.852;2022-10-22T05:11:40;99289.78;;;8.19;95.79
21728;BME280;11026;50.560;17.852;2022-10-22T05:14:08;99292.44;;;8.19;95.89
21728;BME280;11026;50.560;17.852;2022-10-22T05:16:36;99288.56;;;8.27;95.60
21728;BME280;11026;50.560;17.852;2022-10-22T05:19:06;99284.88;;;8.09;95.92
21728;BME280;11026;50.560;17.852;2022-10-22T05:21:36;99280.63;;;8.29;95.58
21728;BME280;11026;50.560;17.852;2022-10-22T05:24:03;99263.34;;;8.22;95.17
21728;BME280;11026;50.560;17.852;2022-10-22T05:26:31;99270.56;;;8.17;96.03
21728;BME280;11026;50.560;17.852;2022-10-22T05:28:59;99266.19;;;8.16;96.42
21728;BME280;11026;50.560;17.852;2022-10-22T05:31:29;99281.97;;;8.41;95.09
21728;BME280;11026;50.560;17.852;2022-10-22T05:33:56;99284.31;;;8.48;94.50
21728;BME280;11026;50.560;17.852;2022-10-22T05:36:23;99279.47;;;8.36;94.59
21728;BME280;11026;50.560;17.852;2022-10-22T05:38:50;99282.22;;;8.33;95.45
21728;BME280;11026;50.560;17.852;2022-10-22T05:41:21;99279.88;;;8.25;95.53
21728;BME280;11026;50.560;17.852;2022-10-22T05:43:49;99274.63;;;8.25;96.01
21728;BME280;11026;50.560;17.852;2022-10-22T05:46:18;99285.59;;;8.36;95.81
21728;BME280;11026;50.560;17.852;2022-10-22T05:48:53;99302.50;;;8.31;95.87
21728;BME280;11026;50.560;17.852;2022-10-22T05:51:21;99316.03;;;8.45;95.27
21728;BME280;11026;50.560;17.852;2022-10-22T05:53:53;99324.06;;;8.42;94.80
21728;BME280;11026;50.560;17.852;2022-10-22T05:56:21;99333.00;;;8.38;94.72
21728;BME280;11026;50.560;17.852;2022-10-22T05:58:48;99348.22;;;8.30;95.26
21728;BME280;11026;50.560;17.852;2022-10-22T06:01:18;99337.75;;;8.28;95.65
21728;BME280;11026;50.560;17.852;2022-10-22T06:03:47;99342.00;;;8.32;95.60
21728;BME280;11026;50.560;17.852;2022-10-22T06:08:52;99351.47;;;8.38;96.08
21728;BME280;11026;50.560;17.852;2022-10-22T06:11:21;99358.00;;;8.51;95.89
21728;BME280;11026;50.560;17.852;2022-10-22T06:13:49;99356.59;;;8.65;95.51
21728;BME280;11026;50.560;17.852;2022-10-22T06:16:16;99345.25;;;8.62;95.09
21728;BME280;11026;50.560;17.852;2022-10-22T06:18:43;99352.25;;;8.85;95.34
21728;BME280;11026;50.560;17.852;2022-10-22T06:21:13;99342.06;;;8.98;94.50
21728;BME280;11026;50.560;17.852;2022-10-22T06:23:42;99340.03;;;9.05;94.54
21728;BME280;11026;50.560;17.852;2022-10-22T06:26:10;99337.72;;;9.19;94.16
21728;BME280;11026;50.560;17.852;2022-10-22T06:28:38;99325.16;;;9.24;94.47
21728;BME280;11026;50.560;17.852;2022-10-22T06:31:05;99344.41;;;9.48;93.48
21728;BME280;11026;50.560;17.852;2022-10-22T06:33:33;99346.63;;;9.57;92.51
21728;BME280;11026;50.560;17.852;2022-10-22T06:36:08;99334.94;;;9.83;91.93
21728;BME280;11026;50.560;17.852;2022-10-22T06:38:35;99343.53;;;9.89;91.56
21728;BME280;11026;50.560;17.852;2022-10-22T06:41:08;99341.53;;;9.94;91.89
21728;BME280;11026;50.560;17.852;2022-10-22T06:43:35;99343.44;;;10.10;91.40
21728;BME280;11026;50.560;17.852;2022-10-22T06:46:06;99330.28;;;10.09;90.88
21728;BME280;11026;50.560;17.852;2022-10-22T06:48:36;99328.34;;;10.13;90.46
21728;BME280;11026;50.560;17.852;2022-10-22T06:51:06;99313.94;;;10.20;90.73
21728;BME280;11026;50.560;17.852;2022-10-22T06:53:34;99311.91;;;10.26;90.25
21728;BME280;11026;50.560;17.852;2022-10-22T06:56:21;99313.75;;;10.43;90.45
21728;BME280;11026;50.560;17.852;2022-10-22T06:58:50;99319.19;;;10.40;88.63
21728;BME280;11026;50.560;17.852;2022-10-22T07:01:22;99333.97;;;10.44;88.76
21728;BME280;11026;50.560;17.852;2022-10-22T07:03:51;99348.50;;;10.36;89.30
21728;BME280;11026;50.560;17.852;2022-10-22T07:06:18;99348.84;;;10.47;89.60
21728;BME280;11026;50.560;17.852;2022-10-22T07:08:46;99349.63;;;10.68;87.99
21728;BME280;11026;50.560;17.852;2022-10-22T07:11:16;99368.78;;;10.73;86.95
21728;BME280;11026;50.560;17.852;2022-10-22T07:13:43;99367.38;;;10.66;87.04
21728;BME280;11026;50.560;17.852;2022-10-22T07:16:11;99381.69;;;10.62;88.14
21728;BME280;11026;50.560;17.852;2022-10-22T07:18:39;99368.81;;;10.54;87.73
21728;BME280;11026;50.560;17.852;2022-10-22T07:21:08;99367.78;;;10.56;87.82
21728;BME280;11026;50.560;17.852;2022-10-22T07:23:35;99349.78;;;10.65;88.11
21728;BME280;11026;50.560;17.852;2022-10-22T07:26:03;99354.91;;;10.68;88.13
21728;BME280;11026;50.560;17.852;2022-10-22T07:28:34;99357.44;;;10.71;88.31
21728;BME280;11026;50.560;17.852;2022-10-22T07:31:02;99367.03;;;10.73;87.50
21728;BME280;11026;50.560;17.852;2022-10-22T07:33:29;99371.66;;;10.68;87.90
21728;BME280;11026;50.560;17.852;2022-10-22T07:35:57;99356.97;;;10.80;88.34
21728;BME280;11026;50.560;17.852;2022-10-22T07:38:26;99347.97;;;10.84;88.04
21728;BME280;11026;50.560;17.852;2022-10-22T07:40:53;99372.13;;;10.95;87.74
21728;BME280;11026;50.560;17.852;2022-10-22T07:43:20;99377.56;;;10.92;86.86
21728;BME280;11026;50.560;17.852;2022-10-22T07:45:47;99376.44;;;10.98;87.32
21728;BME280;11026;50.560;17.852;2022-10-22T07:48:15;99379.63;;;11.04;86.42
21728;BME280;11026;50.560;17.852;2022-10-22T07:50:42;99377.78;;;11.06;86.24
21728;BME280;11026;50.560;17.852;2022-10-22T07:53:10;99367.47;;;11.00;86.05
21728;BME280;11026;50.560;17.852;2022-10-22T07:55:36;99373.06;;;10.94;86.75
21728;BME280;11026;50.560;17.852;2022-10-22T07:58:03;99385.38;;;10.95;87.80
21728;BME280;11026;50.560;17.852;2022-10-22T08:00:30;99375.41;;;11.00;87.64
21728;BME280;11026;50.560;17.852;2022-10-22T08:02:57;99365.28;;;10.91;87.30
21728;BME280;11026;50.560;17.852;2022-10-22T08:05:24;99374.72;;;10.97;87.21
21728;BME280;11026;50.560;17.852;2022-10-22T08:07:51;99372.97;;;10.96;87.50
21728;BME280;11026;50.560;17.852;2022-10-22T08:10:19;99381.19;;;11.08;87.76
21728;BME280;11026;50.560;17.852;2022-10-22T08:12:46;99383.91;;;11.07;87.44
21728;BME280;11026;50.560;17.852;2022-10-22T08:15:14;99390.06;;;11.07;87.78
21728;BME280;11026;50.560;17.852;2022-10-22T08:17:41;99385.34;;;11.14;88.76
21728;BME280;11026;50.560;17.852;2022-10-22T08:20:09;99385.13;;;11.19;88.62
21728;BME280;11026;50.560;17.852;2022-10-22T08:22:36;99380.91;;;11.32;87.97
21728;BME280;11026;50.560;17.852;2022-10-22T08:25:04;99383.13;;;11.41;88.25
21728;BME280;11026;50.560;17.852;2022-10-22T08:27:31;99385.31;;;11.50;87.27
21728;BME280;11026;50.560;17.852;2022-10-22T08:29:58;99376.38;;;11.53;87.92
21728;BME280;11026;50.560;17.852;2022-10-22T08:32:25;99378.63;;;11.61;87.82
21728;BME280;11026;50.560;17.852;2022-10-22T08:34:57;99377.97;;;11.55;88.16
21728;BME280;11026;50.560;17.852;2022-10-22T08:37:24;99370.69;;;11.61;88.32
21728;BME280;11026;50.560;17.852;2022-10-22T08:39:51;99368.16;;;11.75;87.63
21728;BME280;11026;50.560;17.852;2022-10-22T08:47:43;99388.84;;;11.68;88.04
21728;BME280;11026;50.560;17.852;2022-10-22T08:50:17;99384.00;;;11.59;87.95
21728;BME280;11026;50.560;17.852;2022-10-22T08:52:48;99392.50;;;11.66;88.77
21728;BME280;11026;50.560;17.852;2022-10-22T08:55:18;99390.59;;;11.68;89.36
21728;BME280;11026;50.560;17.852;2022-10-22T09:00:36;99395.63;;;11.74;88.69
21728;BME280;11026;50.560;17.852;2022-10-22T09:03:25;99396.56;;;11.73;89.61
21728;BME280;11026;50.560;17.852;2022-10-22T09:05:56;99404.34;;;11.76;89.42
21728;BME280;11026;50.560;17.852;2022-10-22T09:08:24;99399.72;;;11.79;89.52
21728;BME280;11026;50.560;17.852;2022-10-22T09:11:01;99396.72;;;11.87;88.27
21728;BME280;11026;50.560;17.852;2022-10-22T09:13:29;99398.72;;;11.82;87.40
21728;BME280;11026;50.560;17.852;2022-10-22T09:16:11;99401.53;;;11.79;87.73
21728;BME280;11026;50.560;17.852;2022-10-22T09:18:50;99407.16;;;11.90;88.13
21728;BME280;11026;50.560;17.852;2022-10-22T09:21:47;99409.72;;;11.92;87.83
21728;BME280;11026;50.560;17.852;2022-10-22T09:24:47;99407.31;;;11.87;87.28
21728;BME280;11026;50.560;17.852;2022-10-22T09:27:16;99401.16;;;11.87;88.09
21728;BME280;11026;50.560;17.852;2022-10-22T09:29:46;99396.72;;;11.87;87.64
21728;BME280;11026;50.560;17.852;2022-10-22T09:32:14;99389.06;;;11.98;88.27
21728;BME280;11026;50.560;17.852;2022-10-22T09:34:48;99400.53;;;11.99;88.28
21728;BME280;11026;50.560;17.852;2022-10-22T09:37:16;99399.97;;;12.10;87.29
21728;BME280;11026;50.560;17.852;2022-10-22T09:39:47;99410.97;;;12.02;87.31
21728;BME280;11026;50.560;17.852;2022-10-22T09:42:18;99410.13;;;12.01;87.17
21728;BME280;11026;50.560;17.852;2022-10-22T09:44:55;99400.38;;;12.02;87.67
21728;BME280;11026;50.560;17.852;2022-10-22T09:47:38;99393.66;;;12.12;87.90
21728;BME280;11026;50.560;17.852;2022-10-22T09:50:49;99395.91;;;12.20;86.86
21728;BME280;11026;50.560;17.852;2022-10-22T09:53:25;99406.19;;;12.26;87.34
21728;BME280;11026;50.560;17.852;2022-10-22T09:55:58;99398.78;;;12.33;87.79
21728;BME280;11026;50.560;17.852;2022-10-22T09:58:26;99399.28;;;12.39;87.52
21728;BME280;11026;50.560;17.852;2022-10-22T10:00:56;99402.31;;;12.49;86.60
21728;BME280;11026;50.560;17.852;2022-10-22T10:03:31;99406.25;;;12.58;86.00
21728;BME280;11026;50.560;17.852;2022-10-22T10:06:00;99395.59;;;12.59;86.55
21728;BME280;11026;50.560;17.852;2022-10-22T10:08:31;99401.94;;;12.72;86.46
21728;BME280;11026;50.560;17.852;2022-10-22T10:11:04;99391.47;;;12.85;85.35
21728;BME280;11026;50.560;17.852;2022-10-22T10:14:03;99401.50;;;12.96;85.05
21728;BME280;11026;50.560;17.852;2022-10-22T10:24:55;99393.38;;;13.15;83.55
21728;BME280;11026;50.560;17.852;2022-10-22T10:27:34;99388.06;;;13.15;84.06
21728;BME280;11026;50.560;17.852;2022-10-22T10:30:05;99378.97;;;13.19;83.21
21728;BME280;11026;50.560;17.852;2022-10-22T10:35:28;99383.78;;;13.28;84.02
21728;BME280;11026;50.560;17.852;2022-10-22T10:38:29;99388.16;;;13.29;84.90
21728;BME280;11026;50.560;17.852;2022-10-22T10:44:00;99377.94;;;13.37;83.73
21728;BME280;11026;50.560;17.852;2022-10-22T10:46:34;99384.09;;;13.38;83.22
21728;BME280;11026;50.560;17.852;2022-10-22T10:49:16;99380.94;;;13.47;83.25
21728;BME280;11026;50.560;17.852;2022-10-22T10:51:58;99381.69;;;13.49;82.90
21728;BME280;11026;50.560;17.852;2022-10-22T10:54:49;99384.84;;;13.56;83.39
21728;BME280;11026;50.560;17.852;2022-10-22T11:00:17;99374.47;;;13.81;81.98
21728;BME280;11026;50.560;17.852;2022-10-22T11:05:53;99372.97;;;13.91;82.06
21728;BME280;11026;50.560;17.852;2022-10-22T11:08:31;99378.06;;;13.80;82.25
21728;BME280;11026;50.560;17.852;2022-10-22T11:11:30;99374.44;;;13.67;83.74
21728;BME280;11026;50.560;17.852;2022-10-22T11:17:11;99379.16;;;13.62;84.58
21728;BME280;11026;50.560;17.852;2022-10-22T11:19:44;99375.16;;;13.99;83.42
21728;BME280;11026;50.560;17.852;2022-10-22T11:22:27;99379.44;;;14.01;83.07
21728;BME280;11026;50.560;17.852;2022-10-22T11:27:56;99363.75;;;13.97;84.71
21728;BME280;11026;50.560;17.852;2022-10-22T11:30:35;99369.00;;;14.13;83.64
21728;BME280;11026;50.560;17.852;2022-10-22T11:33:09;99368.84;;;14.30;83.02
21728;BME280;11026;50.560;17.852;2022-10-22T11:35:41;99367.88;;;14.31;82.95
21728;BME280;11026;50.560;17.852;2022-10-22T11:38:14;99365.22;;;14.31;83.13
21728;BME280;11026;50.560;17.852;2022-10-22T11:40:55;99372.25;;;14.32;82.28
21728;BME280;11026;50.560;17.852;2022-10-22T11:43:30;99370.44;;;14.47;82.68
21728;BME280;11026;50.560;17.852;2022-10-22T11:46:53;99368.75;;;14.46;82.54
21728;BME280;11026;50.560;17.852;2022-10-22T11:51:42;99372.72;;;14.39;83.05
21728;BME280;11026;50.560;17.852;2022-10-22T11:54:36;99379.03;;;14.52;83.62
21728;BME280;11026;50.560;17.852;2022-10-22T11:57:18;99374.25;;;14.43;83.24
21728;BME280;11026;50.560;17.852;2022-10-22T12:02:39;99375.88;;;14.45;84.06
21728;BME280;11026;50.560;17.852;2022-10-22T12:05:38;99371.28;;;14.47;84.66
21728;BME280;11026;50.560;17.852;2022-10-22T12:08:19;99374.34;;;14.41;85.00
21728;BME280;11026;50.560;17.852;2022-10-22T12:11:14;99379.09;;;14.36;85.20
21728;BME280;11026;50.560;17.852;2022-10-22T12:16:38;99388.31;;;14.31;85.81
21728;BME280;11026;50.560;17.852;2022-10-22T12:19:26;99400.84;;;14.28;86.70
21728;BME280;11026;50.560;17.852;2022-10-22T12:22:22;99389.53;;;14.11;87.37
21728;BME280;11026;50.560;17.852;2022-10-22T12:24:56;99390.00;;;14.17;87.84
21728;BME280;11026;50.560;17.852;2022-10-22T12:27:40;99382.91;;;14.18;88.18
21728;BME280;11026;50.560;17.852;2022-10-22T12:30:25;99385.00;;;14.56;87.37
21728;BME280;11026;50.560;17.852;2022-10-22T12:32:54;99384.63;;;14.62;86.39
21728;BME280;11026;50.560;17.852;2022-10-22T12:35:31;99376.06;;;14.57;86.88
21728;BME280;11026;50.560;17.852;2022-10-22T12:38:06;99374.53;;;14.52;87.53
21728;BME280;11026;50.560;17.852;2022-10-22T12:40:34;99376.63;;;14.47;87.49
21728;BME280;11026;50.560;17.852;2022-10-22T12:43:10;99376.94;;;14.57;88.37
21728;BME280;11026;50.560;17.852;2022-10-22T12:45:38;99375.81;;;14.61;87.16
21728;BME280;11026;50.560;17.852;2022-10-22T12:48:30;99370.19;;;14.66;87.01
21728;BME280;11026;50.560;17.852;2022-10-22T12:51:02;99365.31;;;14.72;87.34
21728;BME280;11026;50.560;17.852;2022-10-22T12:53:32;99373.13;;;14.61;87.49
21728;BME280;11026;50.560;17.852;2022-10-22T12:56:13;99371.88;;;14.81;86.35
21728;BME280;11026;50.560;17.852;2022-10-22T12:59:03;99369.00;;;14.84;86.58
21728;BME280;11026;50.560;17.852;2022-10-22T13:01:36;99370.72;;;14.71;87.33
21728;BME280;11026;50.560;17.852;2022-10-22T13:04:35;99369.88;;;14.56;89.01
21728;BME280;11026;50.560;17.852;2022-10-22T13:09:44;99367.34;;;14.55;89.62
21728;BME280;11026;50.560;17.852;2022-10-22T13:12:12;99363.72;;;14.56;90.12
21728;BME280;11026;50.560;17.852;2022-10-22T13:14:45;99364.56;;;14.56;89.85
21728;BME280;11026;50.560;17.852;2022-10-22T13:17:15;99355.72;;;14.56;90.55
21728;BME280;11026;50.560;17.852;2022-10-22T13:19:47;99364.50;;;14.58;90.50
21728;BME280;11026;50.560;17.852;2022-10-22T13:22:33;99360.19;;;14.69;90.31
21728;BME280;11026;50.560;17.852;2022-10-22T13:27:49;99365.19;;;14.88;89.35
21728;BME280;11026;50.560;17.852;2022-10-22T13:30:26;99364.03;;;14.92;89.01
21728;BME280;11026;50.560;17.852;2022-10-22T13:32:57;99362.88;;;14.96;89.44
21728;BME280;11026;50.560;17.852;2022-10-22T13:35:27;99368.59;;;14.90;89.60
21728;BME280;11026;50.560;17.852;2022-10-22T13:37:55;99375.44;;;14.94;90.03
21728;BME280;11026;50.560;17.852;2022-10-22T13:40:22;99377.94;;;14.83;90.33
21728;BME280;11026;50.560;17.852;2022-10-22T13:42:50;99380.25;;;14.75;91.40
21728;BME280;11026;50.560;17.852;2022-10-22T13:45:17;99385.69;;;14.59;92.84
21728;BME280;11026;50.560;17.852;2022-10-22T13:47:49;99391.38;;;14.67;92.67
21728;BME280;11026;50.560;17.852;2022-10-22T13:50:19;99385.19;;;14.67;93.48
21728;BME280;11026;50.560;17.852;2022-10-22T13:52:52;99383.31;;;14.55;94.74
21728;BME280;11026;50.560;17.852;2022-10-22T13:55:29;99380.81;;;14.66;94.25
21728;BME280;11026;50.560;17.852;2022-10-22T13:58:22;99378.06;;;14.53;95.57
21728;BME280;11026;50.560;17.852;2022-10-22T14:00:54;99378.84;;;14.55;96.30
21728;BME280;11026;50.560;17.852;2022-10-22T14:03:29;99372.25;;;14.46;97.41
21728;BME280;11026;50.560;17.852;2022-10-22T14:05:58;99373.47;;;14.41;98.11
21728;BME280;11026;50.560;17.852;2022-10-22T14:08:26;99376.34;;;14.38;99.17
21728;BME280;11026;50.560;17.852;2022-10-22T14:10:54;99377.38;;;14.35;99.95
21728;BME280;11026;50.560;17.852;2022-10-22T14:13:21;99370.25;;;14.36;100.00
21728;BME280;11026;50.560;17.852;2022-10-22T14:15:50;99364.56;;;14.27;100.00
21728;BME280;11026;50.560;17.852;2022-10-22T14:18:21;99365.97;;;14.19;100.00
21728;BME280;11026;50.560;17.852;2022-10-22T14:21:01;99368.94;;;14.14;100.00
21728;BME280;11026;50.560;17.852;2022-10-22T14:23:34;99362.94;;;14.11;100.00
21728;BME280;11026;50.560;17.852;2022-10-22T14:26:03;99364.44;;;14.00;100.00
21728;BME280;11026;50.560;17.852;2022-10-22T14:28:30;99364.53;;;13.99;100.00
21728;BME280;11026;50.560;17.852;2022-10-22T14:31:12;99369.00;;;13.98;100.00
21728;BME280;11026;50.560;17.852;2022-10-22T14:33:39;99365.38;;;13.99;100.00
21728;BME280;11026;50.560;17.852;2022-10-22T14:36:11;99357.88;;;13.92;100.00
21728;BME280;11026;50.560;17.852;2022-10-22T14:38:40;99365.75;;;13.93;100.00